Time;durP1;ratioP1;P1;durP2;ratioP2;P2;SDS_P1;SDS_P2;PMS_P1;PMS_P2;Temp;Humidity;BMP_temperature;BMP_pressure;BME280_temperature;BME280_humidity;BME280_pressure;Samples;Min_cycle;Max_cycle;Signal;HPM_P1;HPM_P2
2023/05/03 00:01:26;;;;;;;11.45;6.10;;;;;;;;;;5048148;28;20417;-63
2023/05/03 00:03:54;;;;;;;10.07;6.32;;;;;;;;;;5040722;28;20423;-63
2023/05/03 00:06:21;;;;;;;9.90;6.35;;;;;;;;;;5040155;28;20407;-63
2023/05/03 00:08:48;;;;;;;10.07;5.75;;;;;;;;;;5042813;28;20515;-63
2023/05/03 00:11:16;;;;;;;11.73;6.85;;;;;;;;;;5043706;28;20911;-63
2023/05/03 00:13:43;;;;;;;9.68;5.95;;;;;;;;;;5042756;28;20478;-63
2023/05/03 00:16:10;;;;;;;10.18;5.90;;;;;;;;;;5043927;28;20413;-63
2023/05/03 00:18:37;;;;;;;10.23;5.95;;;;;;;;;;5042781;28;20463;-63
2023/05/03 00:21:04;;;;;;;10.00;6.30;;;;;;;;;;5036715;28;20419;-63
2023/05/03 00:23:31;;;;;;;10.57;6.85;;;;;;;;;;5040431;28;20423;-63
2023/05/03 00:25:59;;;;;;;11.68;6.60;;;;;;;;;;5042713;28;20418;-63
2023/05/03 00:28:27;;;;;;;9.57;6.38;;;;;;;;;;5042796;28;20512;-63
2023/05/03 00:30:54;;;;;;;14.10;6.80;;;;;;;;;;5045549;28;20419;-63
2023/05/03 00:33:21;;;;;;;8.93;6.25;;;;;;;;;;5046415;28;20449;-63
2023/05/03 00:35:48;;;;;;;11.80;6.30;;;;;;;;;;5039842;28;20449;-63
2023/05/03 00:38:15;;;;;;;10.23;6.17;;;;;;;;;;5041477;28;20415;-63
2023/05/03 00:40:42;;;;;;;10.90;6.38;;;;;;;;;;5037879;28;20465;-63
2023/05/03 00:43:12;;;;;;;11.75;6.50;;;;;;;;;;5041868;28;20904;-63
2023/05/03 00:45:40;;;;;;;9.30;6.27;;;;;;;;;;5040766;28;20892;-63
2023/05/03 00:48:07;;;;;;;9.93;6.18;;;;;;;;;;5041594;28;20428;-63
2023/05/03 00:50:34;;;;;;;8.67;6.23;;;;;;;;;;5039684;28;20535;-63
2023/05/03 00:53:01;;;;;;;10.13;6.57;;;;;;;;;;5039882;28;20789;-63
2023/05/03 00:55:31;;;;;;;9.70;6.43;;;;;;;;;;5046444;28;21007;-63
2023/05/03 00:57:58;;;;;;;10.25;6.20;;;;;;;;;;5039599;28;20771;-63
2023/05/03 01:00:25;;;;;;;12.10;6.22;;;;;;;;;;5049463;28;20412;-63
2023/05/03 01:02:54;;;;;;;9.52;6.32;;;;;;;;;;5046004;28;20775;-63
2023/05/03 01:05:22;;;;;;;9.27;6.33;;;;;;;;;;5041509;28;20457;-63
2023/05/03 01:07:54;;;;;;;9.98;6.38;;;;;;;;;;5039981;28;20407;-63
2023/05/03 01:10:23;;;;;;;11.20;6.25;;;;;;;;;;5042006;28;20475;-63
2023/05/03 01:12:54;;;;;;;13.00;6.72;;;;;;;;;;5040436;28;20453;-63
2023/05/03 01:15:26;;;;;;;13.55;6.65;;;;;;;;;;5039536;28;20410;-63
2023/05/03 01:17:58;;;;;;;11.05;6.47;;;;;;;;;;5039978;28;20415;-63
2023/05/03 01:20:27;;;;;;;13.80;7.00;;;;;;;;;;5038973;28;20415;-63
2023/05/03 01:23:00;;;;;;;13.15;7.22;;;;;;;;;;5039969;28;20423;-63
2023/05/03 01:25:29;;;;;;;11.70;7.00;;;;;;;;;;5037630;28;20495;-63
2023/05/03 01:27:56;;;;;;;11.00;6.90;;;;;;;;;;5037783;28;20414;-63
2023/05/03 01:30:24;;;;;;;11.07;7.32;;;;;;;;;;5052172;28;20413;-63
2023/05/03 01:32:56;;;;;;;10.25;6.85;;;;;;;;;;5047410;28;20417;-63
2023/05/03 01:35:27;;;;;;;9.75;7.30;;;;;;;;;;5039663;28;20465;-63
2023/05/03 01:37:55;;;;;;;11.83;7.33;;;;;;;;;;5039956;28;20415;-63
2023/05/03 01:40:23;;;;;;;11.48;7.53;;;;;;;;;;5042558;28;20420;-63
2023/05/03 01:42:52;;;;;;;13.75;7.47;;;;;;;;;;5039483;28;20414;-63
2023/05/03 01:45:19;;;;;;;12.23;7.85;;;;;;;;;;5041462;28;20429;-63
2023/05/03 01:47:47;;;;;;;10.32;6.97;;;;;;;;;;5039824;28;20501;-63
2023/05/03 01:50:14;;;;;;;12.13;7.93;;;;;;;;;;5038212;28;20413;-63
2023/05/03 01:52:41;;;;;;;14.13;8.20;;;;;;;;;;5037874;28;20460;-63
2023/05/03 01:55:08;;;;;;;14.60;8.38;;;;;;;;;;5040492;28;20433;-65
2023/05/03 01:57:35;;;;;;;10.35;7.95;;;;;;;;;;5029630;28;21240;-62
2023/05/03 02:00:04;;;;;;;11.67;8.30;;;;;;;;;;5045194;28;20944;-63
2023/05/03 02:02:31;;;;;;;12.18;8.10;;;;;;;;;;5044183;28;20424;-63
2023/05/03 02:04:58;;;;;;;11.32;7.93;;;;;;;;;;5043095;28;20431;-63
2023/05/03 02:07:25;;;;;;;13.65;8.00;;;;;;;;;;5041083;28;20479;-63
2023/05/03 02:09:52;;;;;;;11.73;7.30;;;;;;;;;;5041017;28;20418;-63
2023/05/03 02:12:19;;;;;;;12.48;7.50;;;;;;;;;;5045813;28;20945;-63
2023/05/03 02:14:46;;;;;;;10.02;7.40;;;;;;;;;;5042090;28;20894;-63
2023/05/03 02:17:15;;;;;;;11.50;7.90;;;;;;;;;;5043403;28;20977;-63
2023/05/03 02:19:42;;;;;;;12.88;8.27;;;;;;;;;;5044581;28;20421;-63
2023/05/03 02:22:09;;;;;;;11.40;7.30;;;;;;;;;;5042946;28;20415;-63
2023/05/03 02:24:36;;;;;;;11.30;7.50;;;;;;;;;;5042063;28;20426;-63
2023/05/03 02:27:03;;;;;;;15.07;7.80;;;;;;;;;;5044465;28;20430;-63
2023/05/03 02:29:30;;;;;;;12.63;7.55;;;;;;;;;;5051172;28;20413;-63
2023/05/03 02:31:57;;;;;;;9.90;7.03;;;;;;;;;;5044757;28;20433;-63
2023/05/03 02:34:26;;;;;;;14.07;7.57;;;;;;;;;;5043231;28;20468;-62
2023/05/03 02:36:53;;;;;;;10.60;7.50;;;;;;;;;;5045975;28;20467;-63
2023/05/03 02:39:20;;;;;;;13.82;8.07;;;;;;;;;;5041555;28;20419;-63
2023/05/03 02:41:47;;;;;;;10.73;7.63;;;;;;;;;;5043711;28;20419;-63
2023/05/03 02:44:15;;;;;;;10.82;7.50;;;;;;;;;;5041811;28;20435;-63
2023/05/03 02:46:42;;;;;;;12.73;7.53;;;;;;;;;;5042363;28;20450;-63
2023/05/03 02:49:09;;;;;;;12.75;7.25;;;;;;;;;;5043944;28;20424;-63
2023/05/03 02:51:38;;;;;;;11.80;7.78;;;;;;;;;;5042314;28;20498;-63
2023/05/03 02:54:05;;;;;;;11.52;7.53;;;;;;;;;;5041429;28;20473;-63
2023/05/03 02:56:32;;;;;;;10.88;7.43;;;;;;;;;;5044073;28;20417;-62
2023/05/03 02:58:59;;;;;;;11.02;7.75;;;;;;;;;;5046859;28;20429;-63
2023/05/03 03:01:26;;;;;;;11.07;7.20;;;;;;;;;;5049012;28;20416;-63
2023/05/03 03:03:55;;;;;;;12.10;7.18;;;;;;;;;;5041338;28;21312;-63
2023/05/03 03:06:22;;;;;;;12.23;7.40;;;6.70;99.90;;;;;;5043640;28;20418;-63
2023/05/03 03:08:50;;;;;;;10.40;7.20;;;;;;;;;;5042165;28;20414;-62
2023/05/03 03:11:17;;;;;;;10.25;7.47;;;;;;;;;;5044390;28;20903;-62
2023/05/03 03:13:44;;;;;;;11.13;7.97;;;;;;;;;;5041434;28;20473;-62
2023/05/03 03:16:12;;;;;;;12.48;8.10;;;;;;;;;;5043766;28;20419;-62
2023/05/03 03:18:39;;;;;;;13.35;7.93;;;;;;;;;;5044382;28;20417;-62
2023/05/03 03:21:06;;;;;;;12.25;7.30;;;;;;;;;;5040609;28;20485;-63
2023/05/03 03:23:33;;;;;;;12.57;7.82;;;;;;;;;;5040811;28;20484;-63
2023/05/03 03:26:01;;;;;;;13.85;7.30;;;;;;;;;;5044241;28;20485;-63
2023/05/03 03:28:28;;;;;;;12.68;7.90;;;;;;;;;;5043009;28;20469;-63
2023/05/03 03:30:55;;;;;;;15.10;7.22;;;;;;;;;;5050759;28;20447;-62
2023/05/03 03:33:24;;;;;;;13.60;7.10;;;;;;;;;;5046616;28;20448;-63
2023/05/03 03:35:51;;;;;;;12.77;7.80;;;;;;;;;;5040611;28;20473;-63
2023/05/03 03:38:18;;;;;;;10.70;7.57;;;;;;;;;;5042359;28;20410;-63
2023/05/03 03:40:45;;;;;;;12.32;7.60;;;;;;;;;;5042710;28;20423;-63
2023/05/03 03:43:13;;;;;;;16.02;7.90;;;;;;;;;;5042649;28;20891;-63
2023/05/03 03:45:40;;;;;;;13.80;8.60;;;;;;;;;;5042480;28;20496;-62
2023/05/03 03:48:07;;;;;;;13.75;8.90;;;;;;;;;;5040506;28;20497;-62
2023/05/03 03:50:34;;;;;;;14.80;9.73;;;;;;;;;;5041277;28;20463;-62
2023/05/03 03:53:01;;;;;;;16.50;9.85;;;4.40;99.90;;;;;;5042946;28;20815;-62
2023/05/03 03:55:28;;;;;;;21.02;11.30;;;;;;;;;;5044288;28;20413;-62
2023/05/03 03:57:55;;;;;;;15.60;10.52;;;;;;;;;;5040211;28;20415;-62
2023/05/03 04:00:24;;;;;;;18.58;10.43;;;;;;;;;;5052860;28;20424;-62
2023/05/03 04:02:50;;;;;;;16.98;10.50;;;;;;;;;;5044687;28;20423;-62
2023/05/03 04:05:17;;;;;;;16.17;10.52;;;;;;;;;;5042466;28;20467;-62
2023/05/03 04:07:44;;;;;;;16.88;10.95;;;;;;;;;;5040839;28;20411;-62
2023/05/03 04:10:11;;;;;;;16.63;10.80;;;;;;;;;;5043240;28;20966;-62
2023/05/03 04:12:38;;;;;;;17.63;11.52;;;;;;;;;;5042190;28;20796;-62
2023/05/03 04:15:06;;;;;;;15.50;11.35;;;;;;;;;;5042103;28;20830;-62
2023/05/03 04:17:34;;;;;;;14.93;10.98;;;;;;;;;;5039951;28;20411;-62
2023/05/03 04:20:02;;;;;;;19.40;11.47;;;3.20;99.90;;;;;;5040928;28;21021;-62
2023/05/03 04:22:29;;;;;;;21.45;11.10;;;;;;;;;;5042165;28;20757;-62
2023/05/03 04:24:57;;;;;;;17.13;10.75;;;;;;;;;;5040151;28;20434;-63
2023/05/03 04:27:25;;;;;;;17.88;11.25;;;;;;;;;;5043032;28;20884;-62
2023/05/03 04:29:52;;;;;;;16.95;11.95;;;;;;;;;;5047199;28;20986;-62
2023/05/03 04:32:22;;;;;;;18.55;12.43;;;;;;;;;;5047185;28;20471;-63
2023/05/03 04:34:51;;;;;;;18.35;12.60;;;;;;;;;;5039360;28;20407;-62
2023/05/03 04:37:19;;;;;;;17.02;12.30;;;;;;;;;;5040872;28;20425;-62
2023/05/03 04:39:46;;;;;;;17.52;12.82;;;;;;;;;;5048110;28;20876;-64
2023/05/03 04:42:14;;;;;;;21.48;12.43;;;;;;;;;;5052112;28;20997;-63
2023/05/03 04:44:41;;;;;;;19.83;12.15;;;;;;;;;;5049780;28;20965;-63
2023/05/03 04:47:08;;;;;;;18.98;12.00;;;;;;;;;;5042808;28;20473;-63
2023/05/03 04:49:35;;;;;;;18.92;12.15;;;;;;;;;;5039297;28;20504;-63
2023/05/03 04:52:03;;;;;;;18.10;12.27;;;;;;;;;;5041680;28;20417;-63
2023/05/03 04:54:30;;;;;;;19.98;12.68;;;;;;;;;;5040467;28;20783;-63
2023/05/03 04:56:57;;;;;;;22.02;12.73;;;;;;;;;;5040927;28;20980;-63
2023/05/03 04:59:24;;;;;;;20.77;13.30;;;;;;;;;;5048207;28;21035;-63
2023/05/03 05:01:51;;;;;;;20.27;13.57;;;;;;;;;;5042336;28;20419;-63
2023/05/03 05:04:18;;;;;;;19.90;13.30;;;;;;;;;;5041728;28;20410;-63
2023/05/03 05:06:45;;;;;;;18.20;11.93;;;;;;;;;;5040395;28;20425;-63
2023/05/03 05:09:22;;;;;;;18.20;11.73;;;;;;;;;;5039256;28;20449;-63
2023/05/03 05:11:49;;;;;;;18.55;12.05;;;;;;;;;;5043407;28;20419;-58
2023/05/03 05:14:16;;;;;;;17.25;11.23;;;;;;;;;;5049638;28;20505;-58
2023/05/03 05:16:43;;;;;;;15.70;11.32;;;;;;;;;;5039049;28;20419;-58
2023/05/03 05:19:10;;;;;;;15.68;11.18;;;;;;;;;;5041435;28;20409;-62
2023/05/03 05:21:37;;;;;;;17.48;11.70;;;;;;;;;;5039569;28;20415;-59
2023/05/03 05:24:04;;;;;;;17.20;10.93;;;;;;;;;;5038806;28;20802;-58
2023/05/03 05:26:33;;;;;;;16.20;11.00;;;;;;;;;;5041877;28;20421;-61
2023/05/03 05:29:00;;;;;;;14.45;11.25;;;;;;;;;;5044155;28;20409;-63
2023/05/03 05:31:27;;;;;;;16.60;11.53;;;;;;;;;;5049749;28;20420;-61
2023/05/03 05:33:54;;;;;;;16.67;11.07;;;;;;;;;;5047649;28;20417;-58
2023/05/03 05:36:21;;;;;;;16.17;11.60;;;;;;;;;;5041559;28;20413;-57
2023/05/03 05:38:48;;;;;;;15.73;11.10;;;;;;;;;;5039096;28;20824;-62
2023/05/03 05:41:14;;;;;;;14.07;11.48;;;;;;;;;;5038816;28;20489;-57
2023/05/03 05:43:43;;;;;;;17.48;11.23;;;;;;;;;;5029819;28;20411;-52
2023/05/03 05:46:10;;;;;;;15.50;10.38;;;;;;;;;;5031479;28;20790;-59
2023/05/03 05:48:37;;;;;;;16.08;10.23;;;;;;;;;;5033499;28;20897;-57
2023/05/03 05:51:05;;;;;;;13.57;9.80;;;;;;;;;;5040732;28;20420;-60
2023/05/03 05:53:32;;;;;;;15.00;9.77;;;;;;;;;;5045485;28;21099;-58
2023/05/03 05:55:59;;;;;;;15.82;10.10;;;;;;;;;;5044079;28;20417;-59
2023/05/03 05:58:26;;;;;;;15.48;9.90;;;;;;;;;;5049517;28;20883;-53
2023/05/03 06:00:58;;;;;;;14.98;9.43;;;;;;;;;;5051633;28;20466;-60
2023/05/03 06:03:25;;;;;;;15.82;9.63;;;;;;;;;;5042700;28;20424;-58
2023/05/03 06:05:52;;;;;;;14.15;9.60;;;;;;;;;;5041272;28;20429;-56
2023/05/03 06:08:19;;;;;;;12.65;9.43;;;;;;;;;;5042626;28;20413;-60
2023/05/03 06:10:46;;;;;;;14.33;8.60;;;;;;;;;;5046838;28;20449;-62
2023/05/03 06:13:13;;;;;;;14.85;9.07;;;;;;;;;;5053538;28;20480;-57
2023/05/03 06:15:41;;;;;;;13.38;8.80;;;;;;;;;;5041482;28;20407;-58
2023/05/03 06:18:09;;;;;;;14.47;9.33;;;;;;;;;;5032808;28;20445;-57
2023/05/03 06:20:37;;;;;;;15.77;8.80;;;;;;;;;;5032285;28;20415;-59
2023/05/03 06:23:04;;;;;;;14.98;8.50;;;;;;;;;;5043636;28;20452;-58
2023/05/03 06:25:31;;;;;;;13.33;8.63;;;;;;;;;;5044285;28;20425;-62
2023/05/03 06:27:57;;;;;;;16.45;8.88;;;;;;;;;;5053308;28;20488;-61
2023/05/03 06:30:27;;;;;;;13.75;8.38;;;;;;;;;;5056267;28;20461;-63
2023/05/03 06:32:54;;;;;;;15.20;8.93;;;;;;;;;;5044767;28;20423;-61
2023/05/03 06:35:22;;;;;;;12.63;8.55;;;;;;;;;;5043743;28;20413;-61
2023/05/03 06:37:49;;;;;;;11.45;8.00;;;;;;;;;;5042594;28;20509;-66
2023/05/03 06:40:16;;;;;;;12.93;8.47;;;;;;;;;;5038851;28;20422;-66
2023/05/03 06:42:44;;;;;;;12.30;8.23;;;;;;;;;;5044032;28;20414;-60
2023/05/03 06:45:11;;;;;;;12.83;8.53;;;;;;;;;;5040763;28;20508;-62
2023/05/03 06:47:38;;;;;;;13.17;8.90;;;;;;;;;;5043124;28;20838;-62
2023/05/03 06:50:06;;;;;;;12.10;8.63;;;;;;;;;;5042354;28;20833;-62
2023/05/03 06:52:34;;;;;;;11.88;8.05;;;;;;;;;;5047559;28;20468;-62
2023/05/03 06:55:01;;;;;;;10.55;8.07;;;;;;;;;;5047089;28;20429;-61
2023/05/03 06:57:28;;;;;;;11.47;7.90;;;;;;;;;;5043073;28;20516;-61
2023/05/03 06:59:55;;;;;;;11.25;8.27;;;;;;;;;;5045221;28;20466;-62
2023/05/03 07:02:24;;;;;;;12.30;8.32;;;;;;;;;;5047703;28;20417;-62
2023/05/03 07:04:51;;;;;;;13.97;8.37;;;;;;;;;;5040616;28;20422;-62
2023/05/03 07:07:18;;;;;;;12.85;8.27;;;;;;;;;;5040947;28;20423;-59
2023/05/03 07:09:46;;;;;;;11.70;7.82;;;;;;;;;;5042968;28;20410;-63
2023/05/03 07:12:13;;;;;;;13.73;7.93;;;;;;;;;;5048249;28;20423;-61
2023/05/03 07:14:40;;;;;;;10.93;7.70;;;;;;;;;;5043111;28;20419;-60
2023/05/03 07:17:07;;;;;;;11.57;7.45;;;;;;;;;;5048359;28;20421;-58
2023/05/03 07:19:36;;;;;;;11.35;7.50;;;;;;;;;;5048397;28;20421;-58
2023/05/03 07:22:03;;;;;;;10.60;7.05;;;;;;;;;;5040848;28;20506;-62
2023/05/03 07:24:30;;;;;;;11.32;7.00;;;;;;;;;;5040605;28;20418;-60
2023/05/03 07:26:58;;;;;;;11.15;7.05;;;;;;;;;;5043339;28;20427;-60
2023/05/03 07:29:26;;;;;;;8.90;6.20;;;;;;;;;;5047067;28;20420;-59
2023/05/03 07:31:52;;;;;;;9.43;6.60;;;3.20;99.90;;;;;;5045341;28;21103;-63
2023/05/03 07:34:19;;;;;;;9.60;6.90;;;;;;;;;;5051468;28;20481;-64
2023/05/03 07:36:46;;;;;;;9.80;7.43;;;;;;;;;;5039836;28;20457;-62
2023/05/03 07:39:13;;;;;;;9.65;7.18;;;;;;;;;;5042629;28;20478;-61
2023/05/03 07:41:40;;;;;;;11.93;6.85;;;;;;;;;;5044127;28;20423;-61
2023/05/03 07:44:08;;;;;;;11.90;6.90;;;;;;;;;;5041563;28;20910;-61
2023/05/03 07:46:35;;;;;;;9.80;7.10;;;;;;;;;;5041169;28;20433;-62
2023/05/03 07:49:03;;;;;;;12.05;6.53;;;;;;;;;;5041885;28;20892;-62
2023/05/03 07:51:30;;;;;;;8.83;6.20;;;;;;;;;;5046805;28;20411;-60
2023/05/03 07:53:58;;;;;;;10.25;6.55;;;;;;;;;;5048480;28;20832;-61
2023/05/03 07:56:25;;;;;;;9.80;5.60;;;;;;;;;;5041911;28;20425;-63
2023/05/03 07:58:52;;;;;;;11.85;6.03;;;;;;;;;;5042474;28;20913;-59
2023/05/03 08:01:20;;;;;;;8.52;5.10;;;;;;;;;;5046258;28;20421;-65
2023/05/03 08:03:49;;;;;;;9.25;5.93;;;;;;;;;;5043322;28;20425;-65
2023/05/03 08:06:16;;;;;;;8.52;5.70;;;;;;;;;;5041382;28;20429;-64
2023/05/03 08:08:43;;;;;;;8.98;5.93;;;;;;;;;;5030531;28;20414;-64
2023/05/03 08:11:10;;;;;;;6.83;4.93;;;;;;;;;;5040735;28;20480;-65
2023/05/03 08:13:37;;;;;;;8.55;4.68;;;;;;;;;;5049409;28;20428;-65
2023/05/03 08:16:05;;;;;;;8.15;4.40;;;;;;;;;;5040414;28;20411;-65
2023/05/03 08:18:33;;;;;;;7.45;4.55;;;;;;;;;;5039135;28;20422;-65
2023/05/03 08:21:00;;;;;;;6.40;4.00;;;;;;;;;;5041083;28;20413;-66
2023/05/03 08:23:27;;;;;;;6.78;4.13;;;;;;;;;;5040887;28;20415;-65
2023/05/03 08:25:55;;;;;;;6.05;3.85;;;;;;;;;;5041576;28;20479;-65
2023/05/03 08:28:22;;;;;;;7.07;4.00;;;;;;;;;;5040216;28;20421;-64
2023/05/03 08:30:50;;;;;;;7.90;4.60;;;;;;;;;;5049085;28;20514;-63
2023/05/03 08:33:17;;;;;;;8.50;4.40;;;;;;;;;;5049084;28;20477;-63
2023/05/03 08:35:46;;;;;;;5.57;4.32;;;;;;;;;;5046762;28;20417;-64
2023/05/03 08:38:14;;;;;;;8.32;4.40;;;;;;;;;;5039357;28;20419;-65
2023/05/03 08:40:41;;;;;;;7.07;4.55;;;;;;;;;;5044517;28;20461;-64
2023/05/03 08:43:09;;;;;;;6.68;4.05;;;;;;;;;;5044520;28;20514;-62
2023/05/03 08:45:36;;;;;;;8.30;4.28;;;;;;;;;;5040091;28;20421;-61
2023/05/03 08:48:04;;;;;;;7.80;4.10;;;;;;;;;;5046375;28;20897;-63
2023/05/03 08:50:32;;;;;;;5.72;3.78;;;;;;;;;;5041545;28;20417;-63
2023/05/03 08:53:00;;;;;;;9.20;3.97;;;;;;;;;;5049648;28;20552;-62
2023/05/03 08:55:27;;;;;;;8.38;4.10;;;;;;;;;;5050942;28;20464;-63
2023/05/03 08:57:54;;;;;;;6.22;3.97;;;;;;;;;;5038940;28;20454;-60
2023/05/03 09:00:28;;;;;;;7.80;4.07;;;;;;;;;;5050219;28;20461;-61
2023/05/03 09:02:54;;;;;;;5.78;3.80;;;9.50;1.00;;;;;;5041626;28;20829;-60
2023/05/03 09:05:34;;;;;;;6.38;4.07;;;;;;;;;;5029660;28;20418;-60
2023/05/03 09:08:03;;;;;;;6.32;4.32;;;;;;;;;;5029919;28;20454;-61
2023/05/03 09:10:30;;;;;;;7.50;3.77;;;;;;;;;;5033456;28;20425;-61
2023/05/03 09:13:00;;;;;;;6.05;4.05;;;;;;;;;;5038823;28;20423;-61
2023/05/03 09:15:28;;;;;;;8.15;4.50;;;;;;;;;;5042186;28;20419;-61
2023/05/03 09:18:08;;;;;;;7.25;4.38;;;;;;;;;;5038707;28;20414;-62
2023/05/03 09:20:35;;;;;;;7.82;4.35;;;;;;;;;;5041887;28;20418;-61
2023/05/03 09:23:04;;;;;;;7.43;4.38;;;;;;;;;;5041662;28;20413;-61
2023/05/03 09:25:40;;;;;;;6.47;3.83;;;;;;;;;;5048437;28;20478;-62
2023/05/03 09:28:07;;;;;;;8.25;4.15;;;;;;;;;;5033645;28;20430;-63
2023/05/03 09:30:35;;;;;;;6.40;4.60;;;;;;;;;;5053000;28;20505;-62
2023/05/03 09:33:03;;;;;;;6.75;4.38;;;;;;;;;;5043853;28;20423;-59
2023/05/03 09:35:31;;;;;;;7.38;4.50;;;;;;;;;;5053728;28;20412;-61
2023/05/03 09:37:58;;;;;;;6.67;4.40;;;;;;;;;;5041845;28;20501;-62
2023/05/03 09:40:26;;;;;;;7.47;4.13;;;;;;;;;;5045343;28;20429;-61
2023/05/03 09:43:06;;;;;;;5.95;3.97;;;;;;;;;;5041734;28;20409;-62
2023/05/03 09:45:33;;;;;;;5.63;3.80;;;;;;;;;;5044497;28;20763;-60
2023/05/03 09:48:00;;;;;;;7.43;3.70;;;;;;;;;;5042591;28;20429;-60
2023/05/03 09:50:28;;;;;;;5.50;3.85;;;;;;;;;;5042132;28;20423;-59
2023/05/03 09:52:56;;;;;;;6.75;3.97;;;;;;;;;;5046712;28;20930;-62
2023/05/03 09:55:24;;;;;;;5.85;3.80;;;;;;;;;;5044115;28;20801;-61
2023/05/03 09:57:54;;;;;;;5.40;3.63;;;;;;;;;;5044884;28;20413;-60
2023/05/03 10:00:22;;;;;;;7.03;3.90;;;;;;;;;;5050051;28;20416;-59
2023/05/03 10:02:51;;;;;;;7.63;3.80;;;;;;;;;;5043739;28;20542;-63
2023/05/03 10:05:19;;;;;;;6.15;3.78;;;;;;;;;;5046923;28;20417;-60
2023/05/03 10:07:52;;;;;;;6.18;3.50;;;10.60;1.00;;;;;;5046773;28;20792;-60
2023/05/03 10:10:20;;;;;;;5.40;3.60;;;;;;;;;;5046438;28;20426;-60
2023/05/03 10:12:48;;;;;;;8.13;3.90;;;;;;;;;;5045413;28;20418;-60
2023/05/03 10:15:17;;;;;;;7.25;3.97;;;;;;;;;;5048822;28;20423;-61
2023/05/03 10:17:44;;;;;;;5.03;3.42;;;;;;;;;;5048474;28;20416;-62
2023/05/03 10:20:21;;;;;;;7.40;3.40;;;12.40;99.90;;;;;;5041985;28;20415;-59
2023/05/03 10:23:07;;;;;;;8.25;3.50;;;;;;;;;;5044164;28;20425;-59
2023/05/03 10:25:35;;;;;;;4.45;3.03;;;;;;;;;;5036693;28;20779;-59
2023/05/03 10:28:03;;;;;;;5.55;3.50;;;;;;;;;;5053079;28;20489;-58
2023/05/03 10:30:33;;;;;;;6.82;3.47;;;;;;;;;;5048580;28;20453;-58
2023/05/03 10:33:00;;;;;;;7.22;3.22;;;;;;;;;;5046063;28;20505;-59
2023/05/03 10:35:28;;;;;;;5.07;2.90;;;;;;;;;;5049338;28;20415;-59
2023/05/03 10:37:56;;;;;;;5.32;3.20;;;;;;;;;;5047902;28;20409;-58
2023/05/03 10:40:23;;;;;;;5.87;3.50;;;;;;;;;;5041291;28;20542;-57
2023/05/03 10:42:52;;;;;;;5.60;3.22;;;;;;;;;;5044125;28;20412;-60
2023/05/03 10:45:27;;;;;;;5.63;3.40;;;;;;;;;;5044012;28;20795;-57
2023/05/03 10:48:15;;;;;;;4.28;3.00;;;;;;;;;;5044524;28;20429;-59
2023/05/03 10:50:43;;;;;;;7.30;3.63;;;;;;;;;;5042188;28;20499;-60
2023/05/03 10:53:30;;;;;;;5.47;3.50;;;;;;;;;;5051744;28;20886;-60
2023/05/03 10:56:06;;;;;;;5.38;3.20;;;;;;;;;;5043906;28;20420;-53
2023/05/03 10:58:35;;;;;;;5.35;3.28;;;;;;;;;;5048476;28;20567;-55
2023/05/03 11:01:03;;;;;;;6.10;3.50;;;;;;;;;;5049926;28;20471;-58
2023/05/03 11:03:44;;;;;;;6.25;3.10;;;;;;;;;;5045242;28;20842;-60
2023/05/03 11:06:27;;;;;;;6.68;3.25;;;;;;;;;;5043009;28;20459;-59
2023/05/03 11:08:54;;;;;;;7.50;3.60;;;;;;;;;;5043036;28;20402;-60
2023/05/03 11:11:21;;;;;;;4.53;3.33;;;;;;;;;;5042710;28;20909;-59
2023/05/03 11:13:48;;;;;;;7.53;3.38;;;;;;;;;;5044752;28;20471;-61
2023/05/03 11:16:15;;;;;;;6.60;4.03;;;;;;;;;;5049775;28;20477;-61
2023/05/03 11:18:42;;;;;;;6.95;4.00;;;;;;;;;;5043708;28;20409;-58
2023/05/03 11:21:11;;;;;;;4.65;3.45;;;;;;;;;;5039245;28;20419;-59
2023/05/03 11:23:40;;;;;;;5.95;3.50;;;;;;;;;;5040710;28;20959;-59
2023/05/03 11:26:08;;;;;;;4.97;3.57;;;;;;;;;;5040596;28;20515;-59
2023/05/03 11:28:35;;;;;;;7.30;3.60;;;;;;;;;;5045113;28;20436;-59
2023/05/03 11:31:05;;;;;;;7.22;3.90;;;;;;;;;;5052765;28;20417;-59
2023/05/03 11:33:33;;;;;;;8.77;4.18;;;;;;;;;;5042371;28;20417;-59
2023/05/03 11:36:02;;;;;;;4.30;3.25;;;;;;;;;;5048663;28;21013;-59
2023/05/03 11:38:30;;;;;;;6.50;3.60;;;;;;;;;;5046343;28;20413;-58
2023/05/03 11:40:58;;;;;;;5.40;3.80;;;12.20;99.90;;;;;;5046097;28;20413;-59
2023/05/03 11:43:25;;;;;;;6.17;4.00;;;;;;;;;;5040724;28;20430;-59
2023/05/03 11:45:53;;;;;;;7.57;4.03;;;;;;;;;;5041624;28;20413;-59
2023/05/03 11:48:20;;;;;;;5.03;3.15;;;;;;;;;;5042229;28;20822;-59
2023/05/03 11:50:49;;;;;;;6.25;3.95;;;;;;;;;;5042187;28;20496;-62
2023/05/03 11:53:16;;;;;;;6.10;4.05;;;;;;;;;;5038813;28;20461;-60
2023/05/03 11:55:45;;;;;;;5.57;3.95;;;;;;;;;;5042952;28;20460;-59
2023/05/03 11:58:14;;;;;;;8.10;4.05;;;;;;;;;;5051068;28;20778;-59
2023/05/03 12:00:43;;;;;;;9.43;4.28;;;;;;;;;;5053452;28;20419;-61
2023/05/03 12:03:11;;;;;;;8.55;3.92;;;;;;;;;;5051287;28;20413;-61
2023/05/03 12:05:38;;;;;;;4.90;3.80;;;;;;;;;;5041807;28;20413;-60
2023/05/03 12:08:05;;;;;;;5.07;3.30;;;;;;;;;;5040623;28;20435;-60
2023/05/03 12:10:33;;;;;;;5.38;3.65;;;;;;;;;;5042136;28;20504;-62
2023/05/03 12:13:00;;;;;;;6.47;3.88;;;;;;;;;;5041255;28;20458;-60
2023/05/03 12:15:32;;;;;;;7.60;4.00;;;;;;;;;;5041681;28;20424;-61
2023/05/03 12:18:00;;;;;;;6.33;3.90;;;;;;;;;;5037596;28;20414;-61
2023/05/03 12:20:29;;;;;;;6.82;4.10;;;;;;;;;;5048411;28;20504;-59
2023/05/03 12:22:57;;;;;;;7.07;3.78;;;;;;;;;;5048084;28;20447;-59
2023/05/03 12:25:24;;;;;;;5.53;3.20;;;;;;;;;;5040867;28;20416;-57
2023/05/03 12:27:52;;;;;;;6.83;4.00;;;;;;;;;;5042190;28;20530;-59
2023/05/03 12:30:20;;;;;;;4.57;3.80;;;;;;;;;;5049393;28;20411;-58
2023/05/03 12:32:49;;;;;;;6.18;3.55;;;;;;;;;;5046064;28;20417;-62
2023/05/03 12:35:17;;;;;;;6.87;4.03;;;;;;;;;;5038205;28;20509;-62
2023/05/03 12:37:44;;;;;;;4.72;3.50;;;;;;;;;;5042648;28;20409;-61
2023/05/03 12:40:12;;;;;;;3.83;3.25;;;;;;;;;;5048490;28;20421;-62
2023/05/03 12:42:39;;;;;;;6.83;3.80;;;;;;;;;;5030257;28;20463;-61
2023/05/03 12:45:07;;;;;;;7.80;3.60;;;;;;;;;;5029618;28;20468;-61
2023/05/03 12:47:35;;;;;;;6.73;3.90;;;;;;;;;;5030411;28;20560;-61
2023/05/03 12:50:04;;;;;;;7.20;3.42;;;;;;;;;;5041998;28;20413;-60
2023/05/03 12:52:32;;;;;;;3.97;3.20;;;;;;;;;;5050670;28;20515;-61
2023/05/03 12:54:59;;;;;;;4.53;3.50;;;;;;;;;;5041564;28;20477;-57
2023/05/03 12:57:26;;;;;;;6.18;3.80;;;;;;;;;;5041803;28;20648;-62
2023/05/03 12:59:53;;;;;;;6.10;3.40;;;;;;;;;;5053580;28;20773;-60
2023/05/03 13:02:20;;;;;;;5.15;3.42;;;;;;;;;;5051746;28;20422;-60
2023/05/03 13:04:49;;;;;;;8.25;3.67;;;;;;;;;;5039390;28;20551;-62
2023/05/03 13:07:17;;;;;;;4.82;3.80;;;;;;;;;;5038010;28;20429;-61
2023/05/03 13:09:45;;;;;;;6.40;3.85;;;;;;;;;;5038394;28;20888;-60
2023/05/03 13:12:12;;;;;;;7.80;4.28;;;;;;;;;;5040528;28;20428;-59
2023/05/03 13:14:39;;;;;;;6.65;3.70;;;;;;;;;;5040131;28;20417;-59
2023/05/03 13:17:06;;;;;;;5.53;3.50;;;;;;;;;;5041022;28;20522;-60
2023/05/03 13:19:33;;;;;;;5.95;3.55;;;;;;;;;;5041364;28;20413;-60
2023/05/03 13:22:00;;;;;;;6.50;3.72;;;;;;;;;;5048345;28;20422;-60
2023/05/03 13:24:29;;;;;;;5.55;4.00;;;;;;;;;;5040824;28;20466;-62
2023/05/03 13:26:56;;;;;;;6.28;3.83;;;;;;;;;;5039950;28;20462;-60
2023/05/03 13:29:23;;;;;;;6.40;3.63;;;;;;;;;;5047951;28;20917;-58
2023/05/03 13:31:50;;;;;;;5.23;3.90;;;;;;;;;;5050028;28;20428;-60
2023/05/03 13:34:17;;;;;;;6.50;3.85;;;;;;;;;;5040520;28;20801;-61
2023/05/03 13:36:44;;;;;;;7.07;4.00;;;;;;;;;;5038637;28;20426;-61
2023/05/03 13:39:11;;;;;;;4.68;3.33;;;;;;;;;;5043715;28;20463;-63
2023/05/03 13:41:40;;;;;;;7.18;3.95;;;;;;;;;;5048713;28;20478;-63
2023/05/03 13:44:08;;;;;;;8.20;4.17;;;;;;;;;;5040426;28;20490;-62
2023/05/03 13:46:36;;;;;;;6.82;3.67;;;;;;;;;;5045879;28;20421;-65
2023/05/03 13:49:05;;;;;;;5.55;3.55;;;;;;;;;;5049405;28;20429;-63
2023/05/03 13:51:32;;;;;;;6.22;4.03;;;;;;;;;;5053193;28;20421;-63
2023/05/03 13:53:59;;;;;;;7.63;4.20;;;;;;;;;;5044655;28;20449;-63
2023/05/03 13:56:26;;;;;;;6.20;3.67;;;;;;;;;;5045923;28;20464;-61
2023/05/03 13:58:55;;;;;;;5.15;3.75;;;;;;;;;;5041718;28;20413;-62
2023/05/03 14:01:23;;;;;;;6.93;3.60;;;;;;;;;;5050282;28;20464;-61
2023/05/03 14:03:50;;;;;;;6.75;3.53;;;;;;;;;;5037555;28;20457;-62
2023/05/03 14:06:17;;;;;;;5.75;3.97;;;;;;;;;;5047612;28;20449;-60
2023/05/03 14:08:44;;;;;;;7.07;4.22;;;;;;;;;;5041197;28;20489;-62
2023/05/03 14:11:14;;;;;;;7.25;4.97;;;;;;;;;;5041660;28;20422;-62
2023/05/03 14:13:42;;;;;;;5.25;3.95;;;;;;;;;;5048089;28;20469;-63
2023/05/03 14:16:17;;;;;;;7.03;4.10;;;;;;;;;;5044435;28;20530;-63
2023/05/03 14:18:44;;;;;;;8.63;4.10;;;;;;;;;;5052616;28;20928;-64
2023/05/03 14:21:12;;;;;;;5.53;4.20;;;;;;;;;;5043223;28;20433;-62
2023/05/03 14:23:40;;;;;;;9.67;4.47;;;;;;;;;;5042307;28;20576;-63
2023/05/03 14:26:07;;;;;;;7.63;4.23;;;;;;;;;;5042479;28;20427;-61
2023/05/03 14:28:35;;;;;;;7.60;4.63;;;;;;;;;;5045746;28;20429;-60
2023/05/03 14:31:02;;;;;;;6.75;4.60;;;;;;;;;;5048697;28;20505;-60
2023/05/03 14:33:31;;;;;;;7.38;4.28;;;;;;;;;;5044169;28;20904;-59
2023/05/03 14:35:58;;;;;;;5.70;4.20;;;;;;;;;;5043827;28;20466;-60